createdAt,value
2022-11-05T00:02:05.475Z,97989.70
2022-11-05T00:05:30.508Z,97981.37
2022-11-05T00:08:54.593Z,97978.56
2022-11-05T00:12:20.730Z,97975.17
2022-11-05T00:15:44.501Z,97978.20
2022-11-05T00:19:06.817Z,97984.32
2022-11-05T00:22:30.522Z,97996.00
2022-11-05T00:25:36.683Z,98002.53
2022-11-05T00:28:43.864Z,98003.70
2022-11-05T00:31:50.107Z,98008.64
2022-11-05T00:34:54.661Z,98007.48
2022-11-05T00:38:00.845Z,98007.98
2022-11-05T00:41:05.885Z,98004.55
2022-11-05T00:44:29.437Z,98003.56
2022-11-05T00:47:53.928Z,97997.95
2022-11-05T00:51:00.136Z,97996.38
2022-11-05T00:54:05.117Z,98000.98
2022-11-05T00:57:11.353Z,98001.58
2022-11-05T01:00:18.897Z,98006.35
2022-11-05T01:03:26.953Z,98017.40
2022-11-05T01:06:33.024Z,98017.95
2022-11-05T01:09:39.189Z,98015.27
2022-11-05T01:12:45.390Z,98022.54
2022-11-05T01:15:51.061Z,98018.57
2022-11-05T01:18:57.250Z,98011.96
2022-11-05T01:22:01.759Z,98011.75
2022-11-05T01:25:09.937Z,98012.23
2022-11-05T01:28:16.137Z,98011.75
2022-11-05T01:31:22.649Z,98011.50
2022-11-05T01:34:28.823Z,98014.14
2022-11-05T01:37:33.289Z,98019.04
2022-11-05T01:40:43.842Z,98022.49
2022-11-05T01:43:51.929Z,98020.73
2022-11-05T01:46:58.217Z,98025.11
2022-11-05T01:50:08.623Z,98030.91
2022-11-05T01:53:22.127Z,98027.48
2022-11-05T01:56:31.550Z,98033.11
2022-11-05T01:59:41.314Z,98039.17
2022-11-05T02:02:48.609Z,98042.39
2022-11-05T02:05:57.058Z,98043.10
2022-11-05T02:09:08.107Z,98047.04
2022-11-05T02:12:16.029Z,98051.23
2022-11-05T02:15:29.014Z,98050.60
2022-11-05T02:18:49.324Z,98051.59
2022-11-05T02:22:24.964Z,98046.77
2022-11-05T02:25:54.694Z,98048.40
2022-11-05T02:29:31.895Z,98051.50
2022-11-05T02:33:03.433Z,98053.88
2022-11-05T02:36:41.676Z,98055.46
2022-11-05T02:39:54.808Z,98058.89
2022-11-05T02:43:08.775Z,98065.89
2022-11-05T02:46:26.932Z,98076.02
2022-11-05T02:49:47.898Z,98079.36
2022-11-05T02:53:02.002Z,98088.10
2022-11-05T02:56:12.110Z,98097.29
2022-11-05T02:59:18.302Z,98103.89
2022-11-05T03:02:22.939Z,98114.80
2022-11-05T03:05:38.157Z,98130.67
2022-11-05T03:09:05.921Z,98135.49
2022-11-05T03:12:27.272Z,98140.30
2022-11-05T03:15:49.098Z,98149.07
2022-11-05T03:19:06.841Z,98156.12
2022-11-05T03:22:16.759Z,98163.96
2022-11-05T03:25:25.687Z,98167.19
2022-11-05T03:28:36.573Z,98166.53
2022-11-05T03:31:45.003Z,98168.85
2022-11-05T03:34:58.109Z,98169.64
2022-11-05T03:38:07.691Z,98176.17
2022-11-05T03:41:16.774Z,98179.13
2022-11-05T03:44:26.320Z,98180.30
2022-11-05T03:47:38.569Z,98183.05
2022-11-05T03:50:51.669Z,98184.94
2022-11-05T03:54:00.369Z,98188.87
2022-11-05T03:57:11.153Z,98192.70
2022-11-05T04:00:18.350Z,98196.94
2022-11-05T04:03:24.507Z,98202.86
2022-11-05T04:06:46.618Z,98207.40
2022-11-05T04:10:10.727Z,98209.44
2022-11-05T04:13:25.902Z,98214.77
2022-11-05T04:16:49.781Z,98221.88
2022-11-05T04:20:13.354Z,98229.30
2022-11-05T04:23:36.925Z,98229.52
2022-11-05T04:26:45.498Z,98232.40
2022-11-05T04:30:09.425Z,98236.17
2022-11-05T04:33:17.228Z,98241.30
2022-11-05T04:36:23.380Z,98239.30
2022-11-05T04:39:27.925Z,98246.29
2022-11-05T04:42:34.151Z,98247.54
2022-11-05T04:45:38.625Z,98246.11
2022-11-05T04:48:44.823Z,98253.77
2022-11-05T04:51:49.321Z,98260.42
2022-11-05T04:54:55.652Z,98266.19
2022-11-05T04:58:01.914Z,98269.66
2022-11-05T05:01:08.765Z,98270.35
2022-11-05T05:04:14.930Z,98272.56
2022-11-05T05:07:21.621Z,98276.03
2022-11-05T05:10:27.678Z,98279.83
2022-11-05T05:13:33.836Z,98283.27
2022-11-05T05:16:40.006Z,98289.16
2022-11-05T05:20:03.816Z,98289.68
2022-11-05T05:23:10.137Z,98293.44
2022-11-05T05:26:16.556Z,98291.13
2022-11-05T05:29:21.096Z,98292.41
2022-11-05T05:32:27.966Z,98295.74
2022-11-05T05:35:34.187Z,98302.81
2022-11-05T05:38:38.754Z,98304.55
2022-11-05T05:41:44.813Z,98305.16
2022-11-05T05:44:50.945Z,98308.96
2022-11-05T05:47:58.435Z,98315.40
2022-11-05T05:51:05.499Z,98325.20
2022-11-05T05:54:13.521Z,98332.55
2022-11-05T05:57:19.621Z,98334.30
2022-11-05T06:00:26.118Z,98339.61
2022-11-05T06:03:32.238Z,98349.56
2022-11-05T06:06:38.275Z,98356.05
2022-11-05T06:09:44.340Z,98354.16
2022-11-05T06:12:50.524Z,98353.41
2022-11-05T06:15:55.083Z,98360.52
2022-11-05T06:19:01.223Z,98373.31
2022-11-05T06:22:05.674Z,98379.88
2022-11-05T06:25:12.794Z,98385.77
2022-11-05T06:28:18.946Z,98390.46
2022-11-05T06:31:23.850Z,98392.54
2022-11-05T06:34:30.172Z,98393.33
2022-11-05T06:37:34.750Z,98398.80
2022-11-05T06:40:41.110Z,98405.50
2022-11-05T06:43:47.330Z,98408.84
2022-11-05T06:46:51.961Z,98413.03
2022-11-05T06:49:58.333Z,98416.08
2022-11-05T06:53:06.171Z,98425.40
2022-11-05T06:56:12.470Z,98434.35
2022-11-05T06:59:18.572Z,98440.79
2022-11-05T07:02:24.666Z,98440.78
2022-11-05T07:05:30.830Z,98445.79
2022-11-05T07:08:38.233Z,98444.63
2022-11-05T07:11:44.370Z,98450.02
2022-11-05T07:14:48.908Z,98451.73
2022-11-05T07:18:00.127Z,98455.16
2022-11-05T07:21:06.665Z,98458.84
2022-11-05T07:24:14.568Z,98458.09
2022-11-05T07:27:20.906Z,98464.64
2022-11-05T07:30:27.203Z,98473.76
2022-11-05T07:33:36.265Z,98476.51
2022-11-05T07:36:42.922Z,98478.19
2022-11-05T07:39:49.049Z,98479.69
2022-11-05T07:42:56.773Z,98476.30
2022-11-05T07:46:02.877Z,98478.02
2022-11-05T07:49:09.065Z,98475.34
2022-11-05T07:52:15.061Z,98477.33
2022-11-05T07:55:22.044Z,98477.30
2022-11-05T07:58:28.190Z,98482.92
2022-11-05T08:01:32.785Z,98484.73
2022-11-05T08:04:40.410Z,98485.88
2022-11-05T08:07:46.458Z,98483.70
2022-11-05T08:10:52.748Z,98482.36
2022-11-05T08:13:57.285Z,98480.24
2022-11-05T08:17:03.505Z,98476.70
2022-11-05T08:20:09.215Z,98479.92
2022-11-05T08:23:15.623Z,98481.55
2022-11-05T08:26:22.008Z,98488.98
2022-11-05T08:29:26.500Z,98493.21
2022-11-05T08:32:32.652Z,98496.66
2022-11-05T08:35:38.110Z,98500.73
2022-11-05T08:38:44.310Z,98503.29
2022-11-05T08:41:48.790Z,98512.73
2022-11-05T08:44:54.901Z,98522.04
2022-11-05T08:48:05.462Z,98526.06
2022-11-05T08:51:11.662Z,98534.74
2022-11-05T08:54:16.601Z,98537.00
2022-11-05T08:57:22.739Z,98540.21
2022-11-05T09:00:30.665Z,98543.55
2022-11-05T09:03:36.745Z,98545.92
2022-11-05T09:06:42.879Z,98546.17
2022-11-05T09:09:48.859Z,98553.36
2022-11-05T09:12:54.975Z,98554.83
2022-11-05T09:16:01.486Z,98555.32
2022-11-05T09:19:07.752Z,98559.70
2022-11-05T09:22:13.197Z,98562.23
2022-11-05T09:25:19.430Z,98564.52
2022-11-05T09:28:25.714Z,98568.58
2022-11-05T09:31:31.791Z,98571.83
2022-11-05T09:34:38.107Z,98570.03
2022-11-05T09:37:44.189Z,98573.41
2022-11-05T09:40:57.355Z,98578.20
2022-11-05T09:44:07.218Z,98575.66
2022-11-05T09:47:16.737Z,98577.98
2022-11-05T09:50:30.185Z,98579.55
2022-11-05T09:53:40.435Z,98578.41
2022-11-05T09:56:47.822Z,98580.34
2022-11-05T09:59:56.540Z,98579.77
2022-11-05T10:03:05.477Z,98580.69
2022-11-05T10:06:15.229Z,98582.25
2022-11-05T10:09:26.001Z,98580.23
2022-11-05T10:12:38.109Z,98586.28
2022-11-05T10:15:52.078Z,98587.52
2022-11-05T10:19:02.415Z,98587.84
2022-11-05T10:22:14.207Z,98591.06
2022-11-05T10:25:22.668Z,98594.25
2022-11-05T10:28:31.106Z,98599.69
2022-11-05T10:31:39.089Z,98598.11
2022-11-05T10:34:45.937Z,98601.51
2022-11-05T10:37:53.630Z,98600.95
2022-11-05T10:41:14.333Z,98600.59
2022-11-05T10:44:31.666Z,98607.16
2022-11-05T10:47:50.124Z,98612.73
2022-11-05T10:50:56.995Z,98621.50
2022-11-05T10:54:06.807Z,98625.31
2022-11-05T10:57:30.729Z,98625.52
2022-11-05T11:00:37.017Z,98625.73
2022-11-05T11:03:48.445Z,98622.80
2022-11-05T11:06:56.567Z,98622.48
2022-11-05T11:10:03.237Z,98621.13
2022-11-05T11:13:17.021Z,98619.80
2022-11-05T11:16:26.342Z,98619.19
2022-11-05T11:19:34.970Z,98623.36
2022-11-05T11:22:41.102Z,98626.41
2022-11-05T11:25:49.180Z,98625.86
2022-11-05T11:29:01.265Z,98628.28
2022-11-05T11:32:13.236Z,98629.59
2022-11-05T11:35:26.649Z,98627.35
2022-11-05T11:38:35.538Z,98629.08
2022-11-05T11:41:44.651Z,98635.33
2022-11-05T11:44:51.941Z,98636.14
2022-11-05T11:47:58.993Z,98635.36
2022-11-05T11:51:20.631Z,98640.52
2022-11-05T11:54:29.192Z,98640.55
2022-11-05T11:57:46.109Z,98644.73
2022-11-05T12:01:00.649Z,98646.77
2022-11-05T12:04:19.394Z,98647.73
2022-11-05T12:07:38.574Z,98654.41
2022-11-05T12:11:00.929Z,98656.67
2022-11-05T12:14:20.888Z,98658.10
2022-11-05T12:17:39.353Z,98662.25
2022-11-05T12:21:06.490Z,98666.95
2022-11-05T12:24:46.355Z,98665.20
2022-11-05T12:28:21.927Z,98671.08
2022-11-05T12:31:31.589Z,98675.64
2022-11-05T12:34:49.895Z,98680.33
2022-11-05T12:38:05.147Z,98678.95
2022-11-05T12:41:22.732Z,98679.23
2022-11-05T12:44:53.565Z,98679.54
2022-11-05T12:48:24.857Z,98681.35
2022-11-05T12:51:49.854Z,98680.90
2022-11-05T12:55:04.426Z,98682.27
2022-11-05T12:58:19.640Z,98683.17
2022-11-05T13:01:32.926Z,98686.21
2022-11-05T13:04:45.385Z,98684.90
2022-11-05T13:07:59.465Z,98684.23
2022-11-05T13:11:14.336Z,98685.80
2022-11-05T13:14:25.276Z,98686.00
2022-11-05T13:17:35.558Z,98687.95
2022-11-05T13:20:44.690Z,98691.68
2022-11-05T13:23:53.802Z,98691.70
2022-11-05T13:27:05.926Z,98694.56
2022-11-05T13:30:17.254Z,98697.95
2022-11-05T13:33:28.986Z,98708.02
2022-11-05T13:36:59.213Z,98714.05
2022-11-05T13:40:12.046Z,98714.41
2022-11-05T13:43:35.526Z,98712.95
2022-11-05T13:47:09.928Z,98713.60
2022-11-05T13:50:49.384Z,98722.14
2022-11-05T13:54:09.791Z,98724.00
2022-11-05T13:57:33.493Z,98730.58
2022-11-05T14:00:45.678Z,98735.73
2022-11-05T14:03:54.675Z,98740.95
2022-11-05T14:07:11.742Z,98744.61
2022-11-05T14:10:27.210Z,98748.14
2022-11-05T14:13:37.967Z,98749.86
2022-11-05T14:16:52.742Z,98754.65
2022-11-05T14:20:25.262Z,98758.32
2022-11-05T14:23:51.944Z,98765.05
2022-11-05T14:27:33.454Z,98765.73
2022-11-05T14:30:48.006Z,98774.67
2022-11-05T14:34:04.828Z,98783.98
2022-11-05T14:37:30.453Z,98784.31
2022-11-05T14:40:40.430Z,98787.23
2022-11-05T14:43:53.626Z,98788.69
2022-11-05T14:47:02.951Z,98789.20
2022-11-05T14:50:19.795Z,98792.17
2022-11-05T14:53:32.791Z,98793.41
2022-11-05T14:56:51.791Z,98796.13
2022-11-05T15:00:02.105Z,98796.02
2022-11-05T15:03:33.129Z,98797.55
2022-11-05T15:06:39.945Z,98796.65
2022-11-05T15:09:50.111Z,98795.70
2022-11-05T15:13:03.532Z,98799.64
2022-11-05T15:16:10.378Z,98802.63
2022-11-05T15:19:22.337Z,98807.44
2022-11-05T15:22:37.076Z,98809.10
2022-11-05T15:25:53.197Z,98814.20
2022-11-05T15:29:00.628Z,98815.12
